sensor_id;sensor_type;location;lat;lon;timestamp;temperature;humidity
1135;DHT22;556;53.550;10.048;2022-11-20T00:00:23;6.60;47.90
1135;DHT22;556;53.550;10.048;2022-11-20T00:02:51;6.50;47.80
1135;DHT22;556;53.550;10.048;2022-11-20T00:07:46;6.50;47.80
1135;DHT22;556;53.550;10.048;2022-11-20T00:12:43;6.50;47.80
1135;DHT22;556;53.550;10.048;2022-11-20T00:29:57;6.50;47.80
1135;DHT22;556;53.550;10.048;2022-11-20T00:32:25;6.40;47.70
1135;DHT22;556;53.550;10.048;2022-11-20T00:34:52;6.40;47.80
1135;DHT22;556;53.550;10.048;2022-11-20T00:37:19;6.40;47.80
1135;DHT22;556;53.550;10.048;2022-11-20T00:39:46;6.40;47.80
1135;DHT22;556;53.550;10.048;2022-11-20T00:42:14;6.50;47.70
1135;DHT22;556;53.550;10.048;2022-11-20T00:47:10;6.50;47.70
1135;DHT22;556;53.550;10.048;2022-11-20T00:49:37;6.50;47.70
1135;DHT22;556;53.550;10.048;2022-11-20T00:52:05;6.50;48.00
1135;DHT22;556;53.550;10.048;2022-11-20T01:01:55;6.50;48.00
1135;DHT22;556;53.550;10.048;2022-11-20T01:06:51;6.50;47.80
1135;DHT22;556;53.550;10.048;2022-11-20T01:09:18;6.50;47.90
1135;DHT22;556;53.550;10.048;2022-11-20T01:11:45;6.50;47.80
1135;DHT22;556;53.550;10.048;2022-11-20T01:14:14;6.40;47.80
1135;DHT22;556;53.550;10.048;2022-11-20T01:16:43;6.40;47.80
1135;DHT22;556;53.550;10.048;2022-11-20T01:19:13;6.40;47.80
1135;DHT22;556;53.550;10.048;2022-11-20T01:21:43;6.40;48.00
1135;DHT22;556;53.550;10.048;2022-11-20T01:24:12;6.40;48.00
1135;DHT22;556;53.550;10.048;2022-11-20T01:26:42;6.40;47.80
1135;DHT22;556;53.550;10.048;2022-11-20T01:29:13;6.40;47.90
1135;DHT22;556;53.550;10.048;2022-11-20T01:34:10;6.40;47.90
1135;DHT22;556;53.550;10.048;2022-11-20T01:36:38;6.40;47.90
1135;DHT22;556;53.550;10.048;2022-11-20T01:39:09;6.30;47.90
1135;DHT22;556;53.550;10.048;2022-11-20T01:44:48;6.20;48.00
1135;DHT22;556;53.550;10.048;2022-11-20T01:47:19;6.20;48.10
1135;DHT22;556;53.550;10.048;2022-11-20T01:49:50;6.10;48.10
1135;DHT22;556;53.550;10.048;2022-11-20T01:52:21;6.10;48.00
1135;DHT22;556;53.550;10.048;2022-11-20T01:54:55;6.10;48.00
1135;DHT22;556;53.550;10.048;2022-11-20T01:59:57;6.10;48.00
1135;DHT22;556;53.550;10.048;2022-11-20T02:02:26;6.10;48.00
1135;DHT22;556;53.550;10.048;2022-11-20T02:04:57;6.20;48.00
1135;DHT22;556;53.550;10.048;2022-11-20T02:17:37;6.10;48.10
1135;DHT22;556;53.550;10.048;2022-11-20T02:20:06;6.10;48.10
1135;DHT22;556;53.550;10.048;2022-11-20T02:22:39;5.80;48.00
1135;DHT22;556;53.550;10.048;2022-11-20T02:27:37;6.20;48.20
1135;DHT22;556;53.550;10.048;2022-11-20T02:30:06;6.20;48.10
1135;DHT22;556;53.550;10.048;2022-11-20T02:32:35;6.30;48.10
1135;DHT22;556;53.550;10.048;2022-11-20T02:35:07;6.30;48.10
1135;DHT22;556;53.550;10.048;2022-11-20T02:37:37;6.30;48.20
1135;DHT22;556;53.550;10.048;2022-11-20T02:40:07;6.30;48.20
1135;DHT22;556;53.550;10.048;2022-11-20T02:42:37;6.30;48.20
1135;DHT22;556;53.550;10.048;2022-11-20T02:47:33;6.40;48.30
1135;DHT22;556;53.550;10.048;2022-11-20T02:52:28;6.40;48.20
1135;DHT22;556;53.550;10.048;2022-11-20T02:54:55;6.40;48.20
1135;DHT22;556;53.550;10.048;2022-11-20T02:57:22;6.40;48.30
1135;DHT22;556;53.550;10.048;2022-11-20T03:02:18;6.40;48.30
1135;DHT22;556;53.550;10.048;2022-11-20T03:04:46;6.30;48.00
1135;DHT22;556;53.550;10.048;2022-11-20T03:09:41;6.30;48.30
1135;DHT22;556;53.550;10.048;2022-11-20T03:12:08;6.30;48.70
1135;DHT22;556;53.550;10.048;2022-11-20T03:14:36;6.20;48.40
1135;DHT22;556;53.550;10.048;2022-11-20T03:19:33;6.20;48.40
1135;DHT22;556;53.550;10.048;2022-11-20T03:22:00;6.20;48.50
1135;DHT22;556;53.550;10.048;2022-11-20T03:24:27;6.10;48.40
1135;DHT22;556;53.550;10.048;2022-11-20T03:34:19;6.20;48.50
1135;DHT22;556;53.550;10.048;2022-11-20T03:36:46;6.30;48.50
1135;DHT22;556;53.550;10.048;2022-11-20T03:39:14;6.30;48.50
1135;DHT22;556;53.550;10.048;2022-11-20T03:46:38;6.20;48.50
1135;DHT22;556;53.550;10.048;2022-11-20T03:51:35;6.30;48.60
1135;DHT22;556;53.550;10.048;2022-11-20T03:54:04;6.30;48.40
1135;DHT22;556;53.550;10.048;2022-11-20T03:56:33;6.20;48.50
1135;DHT22;556;53.550;10.048;2022-11-20T03:59:00;6.30;48.60
1135;DHT22;556;53.550;10.048;2022-11-20T04:01:30;6.30;48.90
1135;DHT22;556;53.550;10.048;2022-11-20T04:03:58;6.30;48.50
1135;DHT22;556;53.550;10.048;2022-11-20T04:06:27;6.30;48.50
1135;DHT22;556;53.550;10.048;2022-11-20T04:08:57;6.30;48.50
1135;DHT22;556;53.550;10.048;2022-11-20T04:11:26;6.20;48.50
1135;DHT22;556;53.550;10.048;2022-11-20T04:13:55;6.20;48.60
1135;DHT22;556;53.550;10.048;2022-11-20T04:16:24;6.30;48.60
1135;DHT22;556;53.550;10.048;2022-11-20T04:18:53;6.30;48.50
1135;DHT22;556;53.550;10.048;2022-11-20T04:21:21;6.30;48.60
1135;DHT22;556;53.550;10.048;2022-11-20T04:23:49;6.20;48.60
1135;DHT22;556;53.550;10.048;2022-11-20T04:26:18;6.20;48.50
1135;DHT22;556;53.550;10.048;2022-11-20T04:28:47;6.20;48.60
1135;DHT22;556;53.550;10.048;2022-11-20T04:31:17;6.20;48.90
1135;DHT22;556;53.550;10.048;2022-11-20T04:36:15;6.20;48.70
1135;DHT22;556;53.550;10.048;2022-11-20T04:38:44;6.20;48.70
1135;DHT22;556;53.550;10.048;2022-11-20T04:41:15;6.20;48.70
1135;DHT22;556;53.550;10.048;2022-11-20T04:43:46;6.20;48.70
1135;DHT22;556;53.550;10.048;2022-11-20T04:46:13;6.30;48.70
1135;DHT22;556;53.550;10.048;2022-11-20T04:48:41;6.40;48.60
1135;DHT22;556;53.550;10.048;2022-11-20T04:51:09;6.40;48.60
1135;DHT22;556;53.550;10.048;2022-11-20T04:56:07;6.30;48.60
1135;DHT22;556;53.550;10.048;2022-11-20T05:01:05;6.30;48.60
1135;DHT22;556;53.550;10.048;2022-11-20T05:03:33;6.30;48.60
1135;DHT22;556;53.550;10.048;2022-11-20T05:06:00;6.30;48.70
1135;DHT22;556;53.550;10.048;2022-11-20T05:08:28;6.30;48.70
1135;DHT22;556;53.550;10.048;2022-11-20T05:11:00;6.30;48.80
1135;DHT22;556;53.550;10.048;2022-11-20T05:13:27;6.20;48.70
1135;DHT22;556;53.550;10.048;2022-11-20T05:18:24;6.30;48.80
1135;DHT22;556;53.550;10.048;2022-11-20T05:23:22;6.20;48.70
1135;DHT22;556;53.550;10.048;2022-11-20T05:25:52;6.20;48.80
1135;DHT22;556;53.550;10.048;2022-11-20T05:28:19;6.20;48.80
1135;DHT22;556;53.550;10.048;2022-11-20T05:30:47;6.20;49.10
1135;DHT22;556;53.550;10.048;2022-11-20T05:35:44;6.00;48.50
1135;DHT22;556;53.550;10.048;2022-11-20T05:38:12;6.00;48.90
1135;DHT22;556;53.550;10.048;2022-11-20T05:43:07;6.20;49.00
1135;DHT22;556;53.550;10.048;2022-11-20T05:45:34;6.10;48.80
1135;DHT22;556;53.550;10.048;2022-11-20T05:48:01;6.20;48.90
1135;DHT22;556;53.550;10.048;2022-11-20T05:50:29;6.20;48.80
1135;DHT22;556;53.550;10.048;2022-11-20T05:55:27;6.10;48.80
1135;DHT22;556;53.550;10.048;2022-11-20T05:57:56;6.10;48.90
1135;DHT22;556;53.550;10.048;2022-11-20T06:00:23;6.10;48.60
1135;DHT22;556;53.550;10.048;2022-11-20T06:02:52;6.10;48.80
1135;DHT22;556;53.550;10.048;2022-11-20T06:05:21;6.10;48.80
1135;DHT22;556;53.550;10.048;2022-11-20T06:10:19;6.00;48.70
1135;DHT22;556;53.550;10.048;2022-11-20T06:12:47;6.00;49.10
1135;DHT22;556;53.550;10.048;2022-11-20T06:15:15;5.90;48.80
1135;DHT22;556;53.550;10.048;2022-11-20T06:17:42;5.90;49.00
1135;DHT22;556;53.550;10.048;2022-11-20T06:22:38;5.80;49.00
1135;DHT22;556;53.550;10.048;2022-11-20T06:27:35;5.80;49.00
1135;DHT22;556;53.550;10.048;2022-11-20T06:30:03;5.90;49.00
1135;DHT22;556;53.550;10.048;2022-11-20T06:32:30;5.90;49.00
1135;DHT22;556;53.550;10.048;2022-11-20T06:34:58;5.90;49.00
1135;DHT22;556;53.550;10.048;2022-11-20T06:37:25;5.90;49.10
1135;DHT22;556;53.550;10.048;2022-11-20T06:39:52;5.90;49.00
1135;DHT22;556;53.550;10.048;2022-11-20T06:44:49;6.00;49.00
1135;DHT22;556;53.550;10.048;2022-11-20T06:52:12;6.10;49.00
1135;DHT22;556;53.550;10.048;2022-11-20T06:57:07;6.10;48.90
1135;DHT22;556;53.550;10.048;2022-11-20T06:59:34;6.20;49.00
1135;DHT22;556;53.550;10.048;2022-11-20T07:02:03;6.20;48.90
1135;DHT22;556;53.550;10.048;2022-11-20T07:09:26;6.20;49.00
1135;DHT22;556;53.550;10.048;2022-11-20T07:11:54;6.20;49.00
1135;DHT22;556;53.550;10.048;2022-11-20T07:16:49;6.30;49.00
1135;DHT22;556;53.550;10.048;2022-11-20T07:19:18;6.30;49.00
1135;DHT22;556;53.550;10.048;2022-11-20T07:21:45;6.20;49.10
1135;DHT22;556;53.550;10.048;2022-11-20T07:26:40;6.20;49.10
1135;DHT22;556;53.550;10.048;2022-11-20T07:29:07;6.20;49.10
1135;DHT22;556;53.550;10.048;2022-11-20T07:31:35;6.20;49.10
1135;DHT22;556;53.550;10.048;2022-11-20T07:34:02;6.30;49.20
1135;DHT22;556;53.550;10.048;2022-11-20T07:41:26;6.30;49.00
1135;DHT22;556;53.550;10.048;2022-11-20T07:48:49;6.30;49.10
1135;DHT22;556;53.550;10.048;2022-11-20T07:51:17;6.30;49.20
1135;DHT22;556;53.550;10.048;2022-11-20T07:53:45;6.20;49.10
1135;DHT22;556;53.550;10.048;2022-11-20T07:56:13;6.30;49.00
1135;DHT22;556;53.550;10.048;2022-11-20T07:58:40;6.30;49.10
1135;DHT22;556;53.550;10.048;2022-11-20T08:01:08;6.10;48.90
1135;DHT22;556;53.550;10.048;2022-11-20T08:03:36;6.20;49.10
1135;DHT22;556;53.550;10.048;2022-11-20T08:06:05;6.20;49.10
1135;DHT22;556;53.550;10.048;2022-11-20T08:11:02;6.30;49.20
1135;DHT22;556;53.550;10.048;2022-11-20T08:13:47;6.40;49.00
1135;DHT22;556;53.550;10.048;2022-11-20T08:16:32;6.40;49.10
1135;DHT22;556;53.550;10.048;2022-11-20T08:18:59;6.40;49.00
1135;DHT22;556;53.550;10.048;2022-11-20T08:21:26;6.50;49.50
1135;DHT22;556;53.550;10.048;2022-11-20T08:23:53;6.60;48.90
1135;DHT22;556;53.550;10.048;2022-11-20T08:26:23;6.60;49.00
1135;DHT22;556;53.550;10.048;2022-11-20T08:28:53;6.60;49.00
1135;DHT22;556;53.550;10.048;2022-11-20T08:31:21;6.60;49.00
1135;DHT22;556;53.550;10.048;2022-11-20T08:33:48;6.60;49.10
1135;DHT22;556;53.550;10.048;2022-11-20T08:36:16;6.70;49.10
1135;DHT22;556;53.550;10.048;2022-11-20T08:38:47;6.70;49.50
1135;DHT22;556;53.550;10.048;2022-11-20T08:41:14;6.80;49.00
1135;DHT22;556;53.550;10.048;2022-11-20T08:48:49;6.90;48.90
1135;DHT22;556;53.550;10.048;2022-11-20T08:51:17;6.90;48.90
1135;DHT22;556;53.550;10.048;2022-11-20T08:56:11;6.90;49.00
1135;DHT22;556;53.550;10.048;2022-11-20T08:58:39;6.90;49.40
1135;DHT22;556;53.550;10.048;2022-11-20T09:01:08;6.90;49.10
1135;DHT22;556;53.550;10.048;2022-11-20T09:03:36;6.90;49.00
1135;DHT22;556;53.550;10.048;2022-11-20T09:06:05;7.00;49.00
1135;DHT22;556;53.550;10.048;2022-11-20T09:08:34;7.00;49.50
1135;DHT22;556;53.550;10.048;2022-11-20T09:11:02;7.10;49.00
1135;DHT22;556;53.550;10.048;2022-11-20T09:13:32;7.10;48.80
1135;DHT22;556;53.550;10.048;2022-11-20T09:16:01;7.20;48.90
1135;DHT22;556;53.550;10.048;2022-11-20T09:18:32;7.20;48.90
1135;DHT22;556;53.550;10.048;2022-11-20T09:21:00;7.30;48.90
1135;DHT22;556;53.550;10.048;2022-11-20T09:23:31;7.10;48.50
1135;DHT22;556;53.550;10.048;2022-11-20T09:26:02;6.80;48.50
1135;DHT22;556;53.550;10.048;2022-11-20T09:30:57;6.40;48.80
1135;DHT22;556;53.550;10.048;2022-11-20T09:33:24;6.00;49.00
1135;DHT22;556;53.550;10.048;2022-11-20T09:35:53;5.90;49.10
1135;DHT22;556;53.550;10.048;2022-11-20T09:38:20;5.80;49.20
1135;DHT22;556;53.550;10.048;2022-11-20T09:40:54;5.90;49.30
1135;DHT22;556;53.550;10.048;2022-11-20T09:43:28;6.00;49.30
1135;DHT22;556;53.550;10.048;2022-11-20T09:46:04;6.00;49.20
1135;DHT22;556;53.550;10.048;2022-11-20T09:48:42;6.10;49.10
1135;DHT22;556;53.550;10.048;2022-11-20T09:51:23;6.20;49.10
1135;DHT22;556;53.550;10.048;2022-11-20T09:54:03;6.20;48.90
1135;DHT22;556;53.550;10.048;2022-11-20T09:56:33;6.20;48.90
1135;DHT22;556;53.550;10.048;2022-11-20T09:59:04;6.20;49.10
1135;DHT22;556;53.550;10.048;2022-11-20T10:01:35;6.30;49.10
1135;DHT22;556;53.550;10.048;2022-11-20T10:04:06;6.30;49.00
1135;DHT22;556;53.550;10.048;2022-11-20T10:06:43;6.50;49.10
1135;DHT22;556;53.550;10.048;2022-11-20T10:09:20;6.70;49.10
1135;DHT22;556;53.550;10.048;2022-11-20T10:11:55;6.70;49.00
1135;DHT22;556;53.550;10.048;2022-11-20T10:14:29;6.80;49.00
1135;DHT22;556;53.550;10.048;2022-11-20T10:17:06;7.00;48.90
1135;DHT22;556;53.550;10.048;2022-11-20T10:19:46;7.10;48.90
1135;DHT22;556;53.550;10.048;2022-11-20T10:22:26;7.00;48.90
1135;DHT22;556;53.550;10.048;2022-11-20T10:25:04;6.80;48.90
1135;DHT22;556;53.550;10.048;2022-11-20T10:27:47;6.80;49.10
1135;DHT22;556;53.550;10.048;2022-11-20T10:30:19;6.80;49.30
1135;DHT22;556;53.550;10.048;2022-11-20T10:32:50;6.70;49.30
1135;DHT22;556;53.550;10.048;2022-11-20T10:35:21;6.70;49.80
1135;DHT22;556;53.550;10.048;2022-11-20T10:37:55;6.70;49.30
1135;DHT22;556;53.550;10.048;2022-11-20T10:40:29;6.80;49.40
1135;DHT22;556;53.550;10.048;2022-11-20T10:43:01;6.80;49.40
1135;DHT22;556;53.550;10.048;2022-11-20T10:45:38;7.00;49.30
1135;DHT22;556;53.550;10.048;2022-11-20T10:48:14;7.30;49.20
1135;DHT22;556;53.550;10.048;2022-11-20T10:50:52;7.30;49.00
1135;DHT22;556;53.550;10.048;2022-11-20T10:53:42;7.40;49.00
1135;DHT22;556;53.550;10.048;2022-11-20T10:56:16;7.40;49.50
1135;DHT22;556;53.550;10.048;2022-11-20T10:58:52;7.40;49.10
1135;DHT22;556;53.550;10.048;2022-11-20T11:01:21;7.40;49.50
1135;DHT22;556;53.550;10.048;2022-11-20T11:03:49;9.80;50.90
1135;DHT22;556;53.550;10.048;2022-11-20T11:06:23;7.70;49.10
1135;DHT22;556;53.550;10.048;2022-11-20T11:08:58;7.80;48.80
1135;DHT22;556;53.550;10.048;2022-11-20T11:11:28;7.80;49.30
1135;DHT22;556;53.550;10.048;2022-11-20T11:14:04;7.90;49.30
1135;DHT22;556;53.550;10.048;2022-11-20T11:16:32;7.90;49.30
1135;DHT22;556;53.550;10.048;2022-11-20T11:19:06;7.80;49.10
1135;DHT22;556;53.550;10.048;2022-11-20T11:21:34;7.80;49.30
1135;DHT22;556;53.550;10.048;2022-11-20T11:24:20;7.60;49.10
1135;DHT22;556;53.550;10.048;2022-11-20T11:26:53;7.60;49.60
1135;DHT22;556;53.550;10.048;2022-11-20T11:29:22;7.80;49.70
1135;DHT22;556;53.550;10.048;2022-11-20T11:34:17;8.20;49.00
1135;DHT22;556;53.550;10.048;2022-11-20T11:36:54;8.10;48.80
1135;DHT22;556;53.550;10.048;2022-11-20T11:39:24;8.10;48.80
1135;DHT22;556;53.550;10.048;2022-11-20T11:41:52;8.00;49.40
1135;DHT22;556;53.550;10.048;2022-11-20T11:44:20;7.90;48.90
1135;DHT22;556;53.550;10.048;2022-11-20T11:47:11;7.90;49.00
1135;DHT22;556;53.550;10.048;2022-11-20T11:49:38;8.00;49.50
1135;DHT22;556;53.550;10.048;2022-11-20T11:52:12;8.00;48.80
1135;DHT22;556;53.550;10.048;2022-11-20T11:54:46;8.00;49.30
1135;DHT22;556;53.550;10.048;2022-11-20T11:57:20;7.90;49.00
1135;DHT22;556;53.550;10.048;2022-11-20T12:00:00;7.90;49.50
1135;DHT22;556;53.550;10.048;2022-11-20T12:02:37;8.00;49.00
1135;DHT22;556;53.550;10.048;2022-11-20T12:05:16;7.90;48.90
1135;DHT22;556;53.550;10.048;2022-11-20T12:07:47;7.80;48.90
1135;DHT22;556;53.550;10.048;2022-11-20T12:10:20;7.80;48.90
1135;DHT22;556;53.550;10.048;2022-11-20T12:12:51;7.80;49.00
1135;DHT22;556;53.550;10.048;2022-11-20T12:15:27;7.80;49.50
1135;DHT22;556;53.550;10.048;2022-11-20T12:17:56;7.80;49.40
1135;DHT22;556;53.550;10.048;2022-11-20T12:20:26;7.70;48.90
1135;DHT22;556;53.550;10.048;2022-11-20T12:22:59;7.70;48.90
1135;DHT22;556;53.550;10.048;2022-11-20T12:25:32;7.70;48.90
1135;DHT22;556;53.550;10.048;2022-11-20T12:31:18;7.80;48.70
1135;DHT22;556;53.550;10.048;2022-11-20T12:34:07;7.80;49.30
1135;DHT22;556;53.550;10.048;2022-11-20T12:36:40;7.60;48.70
1135;DHT22;556;53.550;10.048;2022-11-20T12:39:27;7.90;49.30
1135;DHT22;556;53.550;10.048;2022-11-20T12:42:09;8.00;48.80
1135;DHT22;556;53.550;10.048;2022-11-20T12:45:10;8.20;48.80
1135;DHT22;556;53.550;10.048;2022-11-20T12:50:51;8.30;49.10
1135;DHT22;556;53.550;10.048;2022-11-20T12:55:57;8.50;48.60
1135;DHT22;556;53.550;10.048;2022-11-20T12:58:34;8.50;48.60
1135;DHT22;556;53.550;10.048;2022-11-20T13:01:23;8.50;49.00
1135;DHT22;556;53.550;10.048;2022-11-20T13:06:54;8.50;48.50
1135;DHT22;556;53.550;10.048;2022-11-20T13:09:23;8.40;48.70
1135;DHT22;556;53.550;10.048;2022-11-20T13:11:58;8.40;48.80
1135;DHT22;556;53.550;10.048;2022-11-20T13:14:34;8.50;48.80
1135;DHT22;556;53.550;10.048;2022-11-20T13:17:09;8.50;49.20
1135;DHT22;556;53.550;10.048;2022-11-20T13:19:39;8.50;48.80
1135;DHT22;556;53.550;10.048;2022-11-20T13:22:08;8.60;49.20
1135;DHT22;556;53.550;10.048;2022-11-20T13:24:35;8.60;49.10
1135;DHT22;556;53.550;10.048;2022-11-20T13:27:05;8.60;48.50
1135;DHT22;556;53.550;10.048;2022-11-20T13:32:04;8.70;48.60
1135;DHT22;556;53.550;10.048;2022-11-20T13:34:32;8.70;48.50
1135;DHT22;556;53.550;10.048;2022-11-20T13:37:00;8.70;49.00
1135;DHT22;556;53.550;10.048;2022-11-20T13:39:32;8.60;48.50
1135;DHT22;556;53.550;10.048;2022-11-20T13:42:01;8.60;48.60
1135;DHT22;556;53.550;10.048;2022-11-20T13:44:35;8.60;48.60
1135;DHT22;556;53.550;10.048;2022-11-20T13:47:04;8.50;49.00
1135;DHT22;556;53.550;10.048;2022-11-20T13:49:44;8.50;48.50
1135;DHT22;556;53.550;10.048;2022-11-20T13:52:31;8.40;48.70
1135;DHT22;556;53.550;10.048;2022-11-20T13:55:11;8.40;48.60
1135;DHT22;556;53.550;10.048;2022-11-20T13:57:57;8.30;48.50
1135;DHT22;556;53.550;10.048;2022-11-20T14:03:06;8.20;48.50
1135;DHT22;556;53.550;10.048;2022-11-20T14:05:38;8.00;48.60
1135;DHT22;556;53.550;10.048;2022-11-20T14:08:12;8.00;49.10
1135;DHT22;556;53.550;10.048;2022-11-20T14:10:40;8.10;49.00
1135;DHT22;556;53.550;10.048;2022-11-20T14:13:12;8.10;48.60
1135;DHT22;556;53.550;10.048;2022-11-20T14:15:43;8.10;48.40
1135;DHT22;556;53.550;10.048;2022-11-20T14:18:12;8.10;48.90
1135;DHT22;556;53.550;10.048;2022-11-20T14:20:41;8.00;48.40
1135;DHT22;556;53.550;10.048;2022-11-20T14:23:10;8.10;48.50
1135;DHT22;556;53.550;10.048;2022-11-20T14:25:42;8.10;48.40
1135;DHT22;556;53.550;10.048;2022-11-20T14:28:16;8.00;48.40
1135;DHT22;556;53.550;10.048;2022-11-20T14:30:48;8.00;48.50
1135;DHT22;556;53.550;10.048;2022-11-20T14:33:15;8.00;48.50
1135;DHT22;556;53.550;10.048;2022-11-20T14:38:15;8.00;48.40
1135;DHT22;556;53.550;10.048;2022-11-20T14:40:44;7.90;48.60
1135;DHT22;556;53.550;10.048;2022-11-20T14:43:20;7.90;48.50
1135;DHT22;556;53.550;10.048;2022-11-20T14:45:55;7.90;48.40
1135;DHT22;556;53.550;10.048;2022-11-20T14:48:30;7.80;48.30
1135;DHT22;556;53.550;10.048;2022-11-20T14:50:58;7.80;48.80
1135;DHT22;556;53.550;10.048;2022-11-20T14:53:26;7.80;48.30
1135;DHT22;556;53.550;10.048;2022-11-20T14:55:58;7.70;48.30
1135;DHT22;556;53.550;10.048;2022-11-20T14:58:27;7.70;48.40
1135;DHT22;556;53.550;10.048;2022-11-20T15:00:57;7.60;48.40
1135;DHT22;556;53.550;10.048;2022-11-20T15:03:31;7.50;48.50
1135;DHT22;556;53.550;10.048;2022-11-20T15:05:59;7.50;49.00
1135;DHT22;556;53.550;10.048;2022-11-20T15:08:27;7.60;49.00
1135;DHT22;556;53.550;10.048;2022-11-20T15:10:56;7.60;48.40
1135;DHT22;556;53.550;10.048;2022-11-20T15:13:28;7.70;48.40
1135;DHT22;556;53.550;10.048;2022-11-20T15:15:59;7.60;48.30
1135;DHT22;556;53.550;10.048;2022-11-20T15:18:29;7.60;48.20
1135;DHT22;556;53.550;10.048;2022-11-20T15:20:58;7.50;48.30
1135;DHT22;556;53.550;10.048;2022-11-20T15:23:27;7.40;48.30
1135;DHT22;556;53.550;10.048;2022-11-20T15:25:55;7.30;48.50
1135;DHT22;556;53.550;10.048;2022-11-20T15:28:27;7.30;48.50
1135;DHT22;556;53.550;10.048;2022-11-20T15:30:57;7.40;48.50
1135;DHT22;556;53.550;10.048;2022-11-20T15:33:24;7.40;48.90
1135;DHT22;556;53.550;10.048;2022-11-20T15:35:52;7.30;48.40
1135;DHT22;556;53.550;10.048;2022-11-20T15:38:19;7.30;48.40
1135;DHT22;556;53.550;10.048;2022-11-20T15:40:46;7.30;48.30
1135;DHT22;556;53.550;10.048;2022-11-20T15:43:14;7.30;48.30
1135;DHT22;556;53.550;10.048;2022-11-20T15:45:43;7.30;48.30
1135;DHT22;556;53.550;10.048;2022-11-20T15:48:15;7.20;48.30
1135;DHT22;556;53.550;10.048;2022-11-20T15:50:48;7.20;48.40
1135;DHT22;556;53.550;10.048;2022-11-20T15:53:17;7.10;48.80
1135;DHT22;556;53.550;10.048;2022-11-20T15:55:44;7.20;48.30
1135;DHT22;556;53.550;10.048;2022-11-20T15:58:11;7.20;48.20
1135;DHT22;556;53.550;10.048;2022-11-20T16:00:39;7.20;48.60
1135;DHT22;556;53.550;10.048;2022-11-20T16:03:08;7.10;48.20
1135;DHT22;556;53.550;10.048;2022-11-20T16:08:05;7.10;48.40
1135;DHT22;556;53.550;10.048;2022-11-20T16:10:32;7.10;48.30
1135;DHT22;556;53.550;10.048;2022-11-20T16:13:00;7.20;48.30
1135;DHT22;556;53.550;10.048;2022-11-20T16:15:45;7.20;48.20
1135;DHT22;556;53.550;10.048;2022-11-20T16:18:17;7.20;48.10
1135;DHT22;556;53.550;10.048;2022-11-20T16:23:14;7.30;48.10
1135;DHT22;556;53.550;10.048;2022-11-20T16:28:10;7.30;48.10
1135;DHT22;556;53.550;10.048;2022-11-20T16:30:37;7.20;48.10
1135;DHT22;556;53.550;10.048;2022-11-20T16:35:32;7.10;48.30
1135;DHT22;556;53.550;10.048;2022-11-20T16:42:57;7.20;48.30
1135;DHT22;556;53.550;10.048;2022-11-20T16:45:33;7.30;48.30
1135;DHT22;556;53.550;10.048;2022-11-20T16:50:27;7.40;48.10
1135;DHT22;556;53.550;10.048;2022-11-20T16:55:23;7.50;48.00
1135;DHT22;556;53.550;10.048;2022-11-20T16:57:51;7.50;48.10
1135;DHT22;556;53.550;10.048;2022-11-20T17:00:18;7.50;48.00
1135;DHT22;556;53.550;10.048;2022-11-20T17:02:45;7.60;49.00
1135;DHT22;556;53.550;10.048;2022-11-20T17:07:42;7.60;48.00
1135;DHT22;556;53.550;10.048;2022-11-20T17:10:09;7.70;48.00
1135;DHT22;556;53.550;10.048;2022-11-20T17:12:38;7.70;48.00
1135;DHT22;556;53.550;10.048;2022-11-20T17:15:06;7.70;48.00
1135;DHT22;556;53.550;10.048;2022-11-20T17:17:34;7.70;47.90
1135;DHT22;556;53.550;10.048;2022-11-20T17:20:01;7.70;48.00
1135;DHT22;556;53.550;10.048;2022-11-20T17:22:28;7.70;47.90
1135;DHT22;556;53.550;10.048;2022-11-20T17:24:55;7.70;47.90
1135;DHT22;556;53.550;10.048;2022-11-20T17:27:23;7.80;48.20
1135;DHT22;556;53.550;10.048;2022-11-20T17:29:52;7.80;47.90
1135;DHT22;556;53.550;10.048;2022-11-20T17:32:19;7.70;47.90
1135;DHT22;556;53.550;10.048;2022-11-20T17:34:46;7.80;48.20
1135;DHT22;556;53.550;10.048;2022-11-20T17:37:14;7.80;47.90
1135;DHT22;556;53.550;10.048;2022-11-20T17:39:41;7.90;48.00
1135;DHT22;556;53.550;10.048;2022-11-20T17:44:52;7.80;47.90
1135;DHT22;556;53.550;10.048;2022-11-20T17:49:47;7.80;47.90
1135;DHT22;556;53.550;10.048;2022-11-20T17:52:14;7.80;48.30
1135;DHT22;556;53.550;10.048;2022-11-20T17:54:41;7.70;48.40
1135;DHT22;556;53.550;10.048;2022-11-20T17:57:08;7.60;47.90
1135;DHT22;556;53.550;10.048;2022-11-20T18:00:07;7.50;48.00
1135;DHT22;556;53.550;10.048;2022-11-20T18:05:06;7.30;48.10
1135;DHT22;556;53.550;10.048;2022-11-20T18:07:34;7.20;48.10
1135;DHT22;556;53.550;10.048;2022-11-20T18:10:01;7.20;48.10
1135;DHT22;556;53.550;10.048;2022-11-20T18:12:28;7.20;48.10
1135;DHT22;556;53.550;10.048;2022-11-20T18:14:55;7.20;48.10
1135;DHT22;556;53.550;10.048;2022-11-20T18:17:24;7.20;48.00
1135;DHT22;556;53.550;10.048;2022-11-20T18:19:51;7.20;48.40
1135;DHT22;556;53.550;10.048;2022-11-20T18:22:19;7.20;48.00
1135;DHT22;556;53.550;10.048;2022-11-20T18:24:46;7.20;48.10
1135;DHT22;556;53.550;10.048;2022-11-20T18:27:17;7.30;48.10
1135;DHT22;556;53.550;10.048;2022-11-20T18:29:46;7.30;48.00
1135;DHT22;556;53.550;10.048;2022-11-20T18:32:16;7.40;48.00
1135;DHT22;556;53.550;10.048;2022-11-20T18:34:48;7.60;47.90
1135;DHT22;556;53.550;10.048;2022-11-20T18:39:43;7.60;47.70
1135;DHT22;556;53.550;10.048;2022-11-20T18:42:12;7.50;47.70
1135;DHT22;556;53.550;10.048;2022-11-20T18:44:57;7.40;47.90
1135;DHT22;556;53.550;10.048;2022-11-20T18:47:26;7.30;48.00
1135;DHT22;556;53.550;10.048;2022-11-20T18:49:58;7.20;48.00
1135;DHT22;556;53.550;10.048;2022-11-20T18:52:27;7.20;47.90
1135;DHT22;556;53.550;10.048;2022-11-20T18:54:55;7.10;48.00
1135;DHT22;556;53.550;10.048;2022-11-20T18:57:24;7.00;48.10
1135;DHT22;556;53.550;10.048;2022-11-20T18:59:52;7.00;48.10
1135;DHT22;556;53.550;10.048;2022-11-20T19:02:20;6.90;48.00
1135;DHT22;556;53.550;10.048;2022-11-20T19:04:48;6.70;48.00
1135;DHT22;556;53.550;10.048;2022-11-20T19:07:17;6.70;48.10
1135;DHT22;556;53.550;10.048;2022-11-20T19:09:47;6.60;48.00
1135;DHT22;556;53.550;10.048;2022-11-20T19:12:15;6.50;48.10
1135;DHT22;556;53.550;10.048;2022-11-20T19:14:42;6.50;48.20
1135;DHT22;556;53.550;10.048;2022-11-20T19:17:10;6.50;48.10
1135;DHT22;556;53.550;10.048;2022-11-20T19:22:05;6.50;48.20
1135;DHT22;556;53.550;10.048;2022-11-20T19:24:34;6.40;48.50
1135;DHT22;556;53.550;10.048;2022-11-20T19:29:29;6.50;48.10
1135;DHT22;556;53.550;10.048;2022-11-20T19:31:56;6.40;48.00
1135;DHT22;556;53.550;10.048;2022-11-20T19:34:24;6.50;48.00
1135;DHT22;556;53.550;10.048;2022-11-20T19:36:51;6.40;47.90
1135;DHT22;556;53.550;10.048;2022-11-20T19:39:21;6.50;48.20
1135;DHT22;556;53.550;10.048;2022-11-20T19:41:50;6.60;48.10
1135;DHT22;556;53.550;10.048;2022-11-20T19:46:45;6.50;48.00
1135;DHT22;556;53.550;10.048;2022-11-20T19:49:13;6.50;48.00
1135;DHT22;556;53.550;10.048;2022-11-20T19:51:44;6.50;48.40
1135;DHT22;556;53.550;10.048;2022-11-20T19:54:12;6.50;48.10
1135;DHT22;556;53.550;10.048;2022-11-20T19:56:39;6.50;48.00
1135;DHT22;556;53.550;10.048;2022-11-20T20:06:32;6.60;48.30
1135;DHT22;556;53.550;10.048;2022-11-20T20:09:05;6.50;48.20
1135;DHT22;556;53.550;10.048;2022-11-20T20:14:00;6.70;48.30
1135;DHT22;556;53.550;10.048;2022-11-20T20:16:30;6.80;48.20